sensor_id;sensor_type;location;lat;lon;timestamp;temperature;humidity
58153;DHT22;43967;51.634;5.566;2024-03-06T00:01:22;19.10;58.20
58153;DHT22;43967;51.634;5.566;2024-03-06T00:06:43;19.10;58.10
58153;DHT22;43967;51.634;5.566;2024-03-06T00:12:04;19.10;58.20
58153;DHT22;43967;51.634;5.566;2024-03-06T00:17:26;19.00;58.10
58153;DHT22;43967;51.634;5.566;2024-03-06T00:22:47;19.10;58.00
58153;DHT22;43967;51.634;5.566;2024-03-06T00:28:08;19.00;57.90
58153;DHT22;43967;51.634;5.566;2024-03-06T00:33:30;19.00;58.00
58153;DHT22;43967;51.634;5.566;2024-03-06T00:38:51;19.00;57.90
58153;DHT22;43967;51.634;5.566;2024-03-06T00:44:14;19.00;57.90
58153;DHT22;43967;51.634;5.566;2024-03-06T00:49:36;19.00;57.80
58153;DHT22;43967;51.634;5.566;2024-03-06T00:54:58;19.00;57.80
58153;DHT22;43967;51.634;5.566;2024-03-06T01:00:20;18.90;57.70
58153;DHT22;43967;51.634;5.566;2024-03-06T01:05:42;18.90;57.80
58153;DHT22;43967;51.634;5.566;2024-03-06T01:11:03;18.90;57.60
58153;DHT22;43967;51.634;5.566;2024-03-06T01:16:25;18.90;57.60
58153;DHT22;43967;51.634;5.566;2024-03-06T01:21:46;18.90;57.60
58153;DHT22;43967;51.634;5.566;2024-03-06T01:27:07;18.90;57.50
58153;DHT22;43967;51.634;5.566;2024-03-06T01:32:29;18.90;57.90
58153;DHT22;43967;51.634;5.566;2024-03-06T01:37:50;18.80;57.50
58153;DHT22;43967;51.634;5.566;2024-03-06T01:43:22;18.80;57.40
58153;DHT22;43967;51.634;5.566;2024-03-06T01:48:44;18.80;57.40
58153;DHT22;43967;51.634;5.566;2024-03-06T01:54:05;18.80;57.40
58153;DHT22;43967;51.634;5.566;2024-03-06T01:59:28;18.80;57.30
58153;DHT22;43967;51.634;5.566;2024-03-06T02:04:50;18.80;57.30
58153;DHT22;43967;51.634;5.566;2024-03-06T02:10:13;18.80;57.20
58153;DHT22;43967;51.634;5.566;2024-03-06T02:15:34;18.70;57.20
58153;DHT22;43967;51.634;5.566;2024-03-06T02:20:55;18.70;57.20
58153;DHT22;43967;51.634;5.566;2024-03-06T02:26:17;18.70;57.20
58153;DHT22;43967;51.634;5.566;2024-03-06T02:31:39;18.70;57.10
58153;DHT22;43967;51.634;5.566;2024-03-06T02:37:00;18.70;57.10
58153;DHT22;43967;51.634;5.566;2024-03-06T02:42:21;18.70;57.10
58153;DHT22;43967;51.634;5.566;2024-03-06T02:47:44;18.70;57.10
58153;DHT22;43967;51.634;5.566;2024-03-06T02:53:05;18.70;57.10
58153;DHT22;43967;51.634;5.566;2024-03-06T02:58:26;18.60;57.00
58153;DHT22;43967;51.634;5.566;2024-03-06T03:03:48;18.60;57.00
58153;DHT22;43967;51.634;5.566;2024-03-06T03:09:09;18.60;56.90
58153;DHT22;43967;51.634;5.566;2024-03-06T03:14:30;18.60;56.90
58153;DHT22;43967;51.634;5.566;2024-03-06T03:19:51;18.60;56.90
58153;DHT22;43967;51.634;5.566;2024-03-06T03:25:13;18.60;56.90
58153;DHT22;43967;51.634;5.566;2024-03-06T03:30:34;18.60;57.60
58153;DHT22;43967;51.634;5.566;2024-03-06T03:35:56;18.60;56.80
58153;DHT22;43967;51.634;5.566;2024-03-06T03:41:17;18.50;56.80
58153;DHT22;43967;51.634;5.566;2024-03-06T03:46:38;18.50;56.80
58153;DHT22;43967;51.634;5.566;2024-03-06T03:51:59;18.50;56.80
58153;DHT22;43967;51.634;5.566;2024-03-06T03:57:21;18.50;56.80
58153;DHT22;43967;51.634;5.566;2024-03-06T04:02:42;18.50;56.70
58153;DHT22;43967;51.634;5.566;2024-03-06T04:08:04;18.50;56.70
58153;DHT22;43967;51.634;5.566;2024-03-06T04:13:26;18.50;56.70
58153;DHT22;43967;51.634;5.566;2024-03-06T04:18:47;18.50;56.60
58153;DHT22;43967;51.634;5.566;2024-03-06T04:24:08;18.40;56.60
58153;DHT22;43967;51.634;5.566;2024-03-06T04:29:30;18.40;56.60
58153;DHT22;43967;51.634;5.566;2024-03-06T04:34:51;18.40;56.60
58153;DHT22;43967;51.634;5.566;2024-03-06T04:40:12;18.40;56.60
58153;DHT22;43967;51.634;5.566;2024-03-06T04:45:34;18.40;56.50
58153;DHT22;43967;51.634;5.566;2024-03-06T04:50:56;18.50;56.60
58153;DHT22;43967;51.634;5.566;2024-03-06T04:56:17;18.50;56.60
58153;DHT22;43967;51.634;5.566;2024-03-06T05:01:38;18.50;57.20
58153;DHT22;43967;51.634;5.566;2024-03-06T05:06:59;18.50;56.40
58153;DHT22;43967;51.634;5.566;2024-03-06T05:12:21;18.50;56.30
58153;DHT22;43967;51.634;5.566;2024-03-06T05:17:42;18.50;56.30
58153;DHT22;43967;51.634;5.566;2024-03-06T05:23:03;18.50;56.30
58153;DHT22;43967;51.634;5.566;2024-03-06T05:28:25;18.50;56.20
58153;DHT22;43967;51.634;5.566;2024-03-06T05:33:47;18.50;56.10
58153;DHT22;43967;51.634;5.566;2024-03-06T05:39:08;18.50;56.20
58153;DHT22;43967;51.634;5.566;2024-03-06T05:44:33;18.50;56.10
58153;DHT22;43967;51.634;5.566;2024-03-06T05:49:54;18.50;56.00
58153;DHT22;43967;51.634;5.566;2024-03-06T05:55:16;18.50;55.90
58153;DHT22;43967;51.634;5.566;2024-03-06T06:00:37;18.60;56.00
58153;DHT22;43967;51.634;5.566;2024-03-06T06:05:58;18.50;56.00
58153;DHT22;43967;51.634;5.566;2024-03-06T06:11:19;18.60;56.00
58153;DHT22;43967;51.634;5.566;2024-03-06T06:16:42;18.60;55.90
58153;DHT22;43967;51.634;5.566;2024-03-06T06:22:03;18.60;55.90
58153;DHT22;43967;51.634;5.566;2024-03-06T06:27:24;18.60;55.90
58153;DHT22;43967;51.634;5.566;2024-03-06T06:32:46;18.50;55.90
58153;DHT22;43967;51.634;5.566;2024-03-06T06:38:07;18.60;55.90
58153;DHT22;43967;51.634;5.566;2024-03-06T06:43:28;18.60;55.90
58153;DHT22;43967;51.634;5.566;2024-03-06T06:48:49;18.60;55.80
58153;DHT22;43967;51.634;5.566;2024-03-06T06:54:11;18.60;55.80
58153;DHT22;43967;51.634;5.566;2024-03-06T06:59:32;18.60;55.70
58153;DHT22;43967;51.634;5.566;2024-03-06T07:04:53;18.60;55.70
58153;DHT22;43967;51.634;5.566;2024-03-06T07:10:15;18.60;55.70
58153;DHT22;43967;51.634;5.566;2024-03-06T07:15:36;18.60;55.60
58153;DHT22;43967;51.634;5.566;2024-03-06T07:20:57;18.60;55.70
58153;DHT22;43967;51.634;5.566;2024-03-06T07:26:18;18.60;55.60
58153;DHT22;43967;51.634;5.566;2024-03-06T07:31:40;18.60;55.70
58153;DHT22;43967;51.634;5.566;2024-03-06T07:37:01;18.60;55.70
58153;DHT22;43967;51.634;5.566;2024-03-06T07:42:23;18.60;55.80
58153;DHT22;43967;51.634;5.566;2024-03-06T07:47:44;18.50;55.80
58153;DHT22;43967;51.634;5.566;2024-03-06T07:53:05;18.50;55.80
58153;DHT22;43967;51.634;5.566;2024-03-06T07:58:27;18.50;55.80
58153;DHT22;43967;51.634;5.566;2024-03-06T08:03:48;18.50;55.80
58153;DHT22;43967;51.634;5.566;2024-03-06T08:09:10;18.50;55.80
58153;DHT22;43967;51.634;5.566;2024-03-06T08:14:31;18.50;55.80
58153;DHT22;43967;51.634;5.566;2024-03-06T08:19:52;18.50;55.90
58153;DHT22;43967;51.634;5.566;2024-03-06T08:25:14;18.50;55.90
58153;DHT22;43967;51.634;5.566;2024-03-06T08:30:35;18.50;56.00
58153;DHT22;43967;51.634;5.566;2024-03-06T08:35:56;18.50;56.00
58153;DHT22;43967;51.634;5.566;2024-03-06T08:41:18;18.50;56.00
58153;DHT22;43967;51.634;5.566;2024-03-06T08:46:39;18.40;55.90
58153;DHT22;43967;51.634;5.566;2024-03-06T08:52:00;18.30;55.90
58153;DHT22;43967;51.634;5.566;2024-03-06T08:57:21;18.40;55.80
58153;DHT22;43967;51.634;5.566;2024-03-06T09:02:43;18.30;55.60
58153;DHT22;43967;51.634;5.566;2024-03-06T09:08:04;18.30;55.60
58153;DHT22;43967;51.634;5.566;2024-03-06T09:13:26;18.40;55.50
58153;DHT22;43967;51.634;5.566;2024-03-06T09:18:47;18.40;55.40
58153;DHT22;43967;51.634;5.566;2024-03-06T09:24:08;18.40;55.50
58153;DHT22;43967;51.634;5.566;2024-03-06T09:29:30;18.40;55.60
58153;DHT22;43967;51.634;5.566;2024-03-06T09:34:52;18.40;55.60
58153;DHT22;43967;51.634;5.566;2024-03-06T09:40:20;18.40;55.70
58153;DHT22;43967;51.634;5.566;2024-03-06T09:45:44;18.40;55.80
58153;DHT22;43967;51.634;5.566;2024-03-06T09:51:08;18.40;55.90
58153;DHT22;43967;51.634;5.566;2024-03-06T09:56:29;18.40;55.90
58153;DHT22;43967;51.634;5.566;2024-03-06T10:01:57;18.40;55.90
58153;DHT22;43967;51.634;5.566;2024-03-06T10:07:19;18.40;56.00
58153;DHT22;43967;51.634;5.566;2024-03-06T10:12:40;18.40;56.00
58153;DHT22;43967;51.634;5.566;2024-03-06T10:18:14;18.30;56.10
58153;DHT22;43967;51.634;5.566;2024-03-06T10:23:36;18.30;56.20
58153;DHT22;43967;51.634;5.566;2024-03-06T10:28:58;18.30;56.40
58153;DHT22;43967;51.634;5.566;2024-03-06T10:34:19;18.30;56.50
58153;DHT22;43967;51.634;5.566;2024-03-06T10:39:43;18.30;56.50
58153;DHT22;43967;51.634;5.566;2024-03-06T10:45:06;18.30;56.50
58153;DHT22;43967;51.634;5.566;2024-03-06T10:50:30;18.30;56.50
58153;DHT22;43967;51.634;5.566;2024-03-06T10:55:51;18.30;56.60
58153;DHT22;43967;51.634;5.566;2024-03-06T11:01:12;18.30;56.60
58153;DHT22;43967;51.634;5.566;2024-03-06T11:06:34;18.30;56.70
58153;DHT22;43967;51.634;5.566;2024-03-06T11:11:55;18.30;56.80
58153;DHT22;43967;51.634;5.566;2024-03-06T11:17:25;18.30;56.80
58153;DHT22;43967;51.634;5.566;2024-03-06T11:28:27;18.20;57.00
58153;DHT22;43967;51.634;5.566;2024-03-06T11:33:53;18.30;57.00
58153;DHT22;43967;51.634;5.566;2024-03-06T11:39:14;18.30;57.00
58153;DHT22;43967;51.634;5.566;2024-03-06T11:44:36;18.20;57.00
58153;DHT22;43967;51.634;5.566;2024-03-06T11:49:58;18.20;57.10
58153;DHT22;43967;51.634;5.566;2024-03-06T11:55:22;18.20;57.10
58153;DHT22;43967;51.634;5.566;2024-03-06T12:00:43;18.20;57.20
58153;DHT22;43967;51.634;5.566;2024-03-06T12:06:05;18.20;57.20
58153;DHT22;43967;51.634;5.566;2024-03-06T12:11:26;18.20;57.20
58153;DHT22;43967;51.634;5.566;2024-03-06T12:16:57;18.20;57.30
58153;DHT22;43967;51.634;5.566;2024-03-06T12:22:19;18.20;57.30
58153;DHT22;43967;51.634;5.566;2024-03-06T12:27:40;18.20;57.40
58153;DHT22;43967;51.634;5.566;2024-03-06T12:33:02;18.20;57.30
58153;DHT22;43967;51.634;5.566;2024-03-06T12:38:28;18.20;57.40
58153;DHT22;43967;51.634;5.566;2024-03-06T12:43:50;18.20;57.40
58153;DHT22;43967;51.634;5.566;2024-03-06T12:49:11;18.20;57.40
58153;DHT22;43967;51.634;5.566;2024-03-06T12:54:32;18.20;57.40
58153;DHT22;43967;51.634;5.566;2024-03-06T12:59:53;18.20;57.40
58153;DHT22;43967;51.634;5.566;2024-03-06T13:05:15;18.20;57.60
58153;DHT22;43967;51.634;5.566;2024-03-06T13:10:36;18.20;57.50
58153;DHT22;43967;51.634;5.566;2024-03-06T13:15:57;18.20;57.50
58153;DHT22;43967;51.634;5.566;2024-03-06T13:21:19;18.20;57.50
58153;DHT22;43967;51.634;5.566;2024-03-06T13:26:40;18.30;57.50
58153;DHT22;43967;51.634;5.566;2024-03-06T13:32:02;18.30;57.40
58153;DHT22;43967;51.634;5.566;2024-03-06T13:37:23;18.30;57.40
58153;DHT22;43967;51.634;5.566;2024-03-06T13:42:44;18.30;57.40
58153;DHT22;43967;51.634;5.566;2024-03-06T13:48:14;18.30;57.50
58153;DHT22;43967;51.634;5.566;2024-03-06T13:53:35;18.30;57.50
58153;DHT22;43967;51.634;5.566;2024-03-06T13:58:56;18.30;57.50
58153;DHT22;43967;51.634;5.566;2024-03-06T14:04:18;18.30;57.50
58153;DHT22;43967;51.634;5.566;2024-03-06T14:09:39;18.30;57.50
58153;DHT22;43967;51.634;5.566;2024-03-06T14:15:01;18.30;57.50
58153;DHT22;43967;51.634;5.566;2024-03-06T14:20:22;18.30;57.50
58153;DHT22;43967;51.634;5.566;2024-03-06T14:25:44;18.30;57.50
58153;DHT22;43967;51.634;5.566;2024-03-06T14:31:05;18.30;57.50
58153;DHT22;43967;51.634;5.566;2024-03-06T14:36:26;18.30;57.50
58153;DHT22;43967;51.634;5.566;2024-03-06T14:41:48;18.20;57.60
58153;DHT22;43967;51.634;5.566;2024-03-06T14:47:10;18.30;57.60
58153;DHT22;43967;51.634;5.566;2024-03-06T14:52:31;18.30;57.60
58153;DHT22;43967;51.634;5.566;2024-03-06T14:57:52;18.30;57.60
58153;DHT22;43967;51.634;5.566;2024-03-06T15:03:13;18.30;57.60
58153;DHT22;43967;51.634;5.566;2024-03-06T15:08:34;18.30;57.60
58153;DHT22;43967;51.634;5.566;2024-03-06T15:13:56;18.30;57.60
58153;DHT22;43967;51.634;5.566;2024-03-06T15:19:17;18.30;57.60
58153;DHT22;43967;51.634;5.566;2024-03-06T15:24:38;18.30;57.70
58153;DHT22;43967;51.634;5.566;2024-03-06T15:29:59;18.30;57.70
58153;DHT22;43967;51.634;5.566;2024-03-06T15:35:21;18.30;57.70
58153;DHT22;43967;51.634;5.566;2024-03-06T15:40:42;18.30;57.70
58153;DHT22;43967;51.634;5.566;2024-03-06T15:46:03;18.30;57.70
58153;DHT22;43967;51.634;5.566;2024-03-06T15:51:25;18.30;57.80
58153;DHT22;43967;51.634;5.566;2024-03-06T15:56:46;18.30;57.60
58153;DHT22;43967;51.634;5.566;2024-03-06T16:02:07;18.30;57.50
58153;DHT22;43967;51.634;5.566;2024-03-06T16:07:29;18.40;59.10
58153;DHT22;43967;51.634;5.566;2024-03-06T16:12:50;18.40;60.90
58153;DHT22;43967;51.634;5.566;2024-03-06T16:18:11;18.40;61.30
58153;DHT22;43967;51.634;5.566;2024-03-06T16:23:32;18.40;61.10
58153;DHT22;43967;51.634;5.566;2024-03-06T16:28:54;18.40;60.80
58153;DHT22;43967;51.634;5.566;2024-03-06T16:34:16;18.40;60.90
58153;DHT22;43967;51.634;5.566;2024-03-06T16:39:37;18.40;61.10
58153;DHT22;43967;51.634;5.566;2024-03-06T16:44:58;18.40;60.80
58153;DHT22;43967;51.634;5.566;2024-03-06T16:50:19;18.40;60.50
58153;DHT22;43967;51.634;5.566;2024-03-06T16:55:41;18.40;60.40
58153;DHT22;43967;51.634;5.566;2024-03-06T17:01:03;18.40;60.60
58153;DHT22;43967;51.634;5.566;2024-03-06T17:06:24;18.50;61.10
58153;DHT22;43967;51.634;5.566;2024-03-06T17:11:45;18.50;61.40
58153;DHT22;43967;51.634;5.566;2024-03-06T17:17:06;18.50;62.30
58153;DHT22;43967;51.634;5.566;2024-03-06T17:22:28;18.50;61.80
58153;DHT22;43967;51.634;5.566;2024-03-06T17:27:49;18.50;62.30
58153;DHT22;43967;51.634;5.566;2024-03-06T17:33:11;18.60;62.70
58153;DHT22;43967;51.634;5.566;2024-03-06T17:38:32;18.60;64.50
58153;DHT22;43967;51.634;5.566;2024-03-06T17:43:53;18.50;64.80
58153;DHT22;43967;51.634;5.566;2024-03-06T17:49:15;18.50;64.30
58153;DHT22;43967;51.634;5.566;2024-03-06T17:54:36;18.50;63.80
58153;DHT22;43967;51.634;5.566;2024-03-06T17:59:57;18.50;63.50
58153;DHT22;43967;51.634;5.566;2024-03-06T18:05:20;18.50;63.10
58153;DHT22;43967;51.634;5.566;2024-03-06T18:10:41;18.50;62.80
58153;DHT22;43967;51.634;5.566;2024-03-06T18:16:03;18.50;64.20
58153;DHT22;43967;51.634;5.566;2024-03-06T18:21:24;18.60;67.50
58153;DHT22;43967;51.634;5.566;2024-03-06T18:26:45;18.60;67.40
58153;DHT22;43967;51.634;5.566;2024-03-06T18:32:07;18.60;67.60
58153;DHT22;43967;51.634;5.566;2024-03-06T18:37:28;18.70;67.90
58153;DHT22;43967;51.634;5.566;2024-03-06T18:42:49;18.70;68.00
58153;DHT22;43967;51.634;5.566;2024-03-06T18:48:10;18.70;68.00
58153;DHT22;43967;51.634;5.566;2024-03-06T18:53:32;18.70;68.00
58153;DHT22;43967;51.634;5.566;2024-03-06T18:58:54;18.70;68.10
58153;DHT22;43967;51.634;5.566;2024-03-06T19:04:16;18.80;68.10
58153;DHT22;43967;51.634;5.566;2024-03-06T19:09:37;18.80;68.10
58153;DHT22;43967;51.634;5.566;2024-03-06T19:14:58;18.80;68.10
58153;DHT22;43967;51.634;5.566;2024-03-06T19:20:20;18.80;67.80
58153;DHT22;43967;51.634;5.566;2024-03-06T19:25:41;18.80;67.60
58153;DHT22;43967;51.634;5.566;2024-03-06T19:31:02;18.80;67.60
58153;DHT22;43967;51.634;5.566;2024-03-06T19:36:24;18.90;67.50
58153;DHT22;43967;51.634;5.566;2024-03-06T19:41:45;18.90;67.50
58153;DHT22;43967;51.634;5.566;2024-03-06T19:47:06;18.90;67.50
58153;DHT22;43967;51.634;5.566;2024-03-06T19:52:27;18.90;67.70
58153;DHT22;43967;51.634;5.566;2024-03-06T19:57:49;18.90;67.70
58153;DHT22;43967;51.634;5.566;2024-03-06T20:03:10;18.80;67.50
58153;DHT22;43967;51.634;5.566;2024-03-06T20:08:31;18.80;67.10
58153;DHT22;43967;51.634;5.566;2024-03-06T20:13:53;18.80;66.70
58153;DHT22;43967;51.634;5.566;2024-03-06T20:19:14;18.80;66.20
58153;DHT22;43967;51.634;5.566;2024-03-06T20:24:35;18.80;65.90
58153;DHT22;43967;51.634;5.566;2024-03-06T20:29:56;18.70;65.60
58153;DHT22;43967;51.634;5.566;2024-03-06T20:35:18;18.70;65.20
58153;DHT22;43967;51.634;5.566;2024-03-06T20:40:39;18.70;65.00
58153;DHT22;43967;51.634;5.566;2024-03-06T20:46:00;18.70;64.70
58153;DHT22;43967;51.634;5.566;2024-03-06T20:51:22;18.70;64.40
58153;DHT22;43967;51.634;5.566;2024-03-06T20:56:43;18.70;64.20
58153;DHT22;43967;51.634;5.566;2024-03-06T21:02:04;18.70;64.20
58153;DHT22;43967;51.634;5.566;2024-03-06T21:07:26;18.70;63.90
58153;DHT22;43967;51.634;5.566;2024-03-06T21:12:47;18.70;63.50
58153;DHT22;43967;51.634;5.566;2024-03-06T21:18:08;18.70;63.20
58153;DHT22;43967;51.634;5.566;2024-03-06T21:23:30;18.70;63.00
58153;DHT22;43967;51.634;5.566;2024-03-06T21:28:52;18.70;62.70
58153;DHT22;43967;51.634;5.566;2024-03-06T21:34:14;18.70;62.50
58153;DHT22;43967;51.634;5.566;2024-03-06T21:39:36;18.70;62.40
58153;DHT22;43967;51.634;5.566;2024-03-06T21:44:57;18.70;62.20
58153;DHT22;43967;51.634;5.566;2024-03-06T21:50:19;18.70;62.10
58153;DHT22;43967;51.634;5.566;2024-03-06T21:55:40;18.70;62.00
58153;DHT22;43967;51.634;5.566;2024-03-06T22:01:02;18.60;61.80
58153;DHT22;43967;51.634;5.566;2024-03-06T22:06:23;18.60;61.50
58153;DHT22;43967;51.634;5.566;2024-03-06T22:11:45;18.60;61.50
58153;DHT22;43967;51.634;5.566;2024-03-06T22:17:06;18.60;61.30
58153;DHT22;43967;51.634;5.566;2024-03-06T22:22:27;18.60;61.20
58153;DHT22;43967;51.634;5.566;2024-03-06T22:27:49;18.60;61.10
58153;DHT22;43967;51.634;5.566;2024-03-06T22:33:10;18.60;60.90
58153;DHT22;43967;51.634;5.566;2024-03-06T22:38:31;18.60;60.80
58153;DHT22;43967;51.634;5.566;2024-03-06T22:43:53;18.60;60.80
58153;DHT22;43967;51.634;5.566;2024-03-06T22:49:14;18.50;60.60
58153;DHT22;43967;51.634;5.566;2024-03-06T22:54:35;18.50;60.50
58153;DHT22;43967;51.634;5.566;2024-03-06T22:59:57;18.50;60.40
58153;DHT22;43967;51.634;5.566;2024-03-06T23:05:18;18.50;60.40
58153;DHT22;43967;51.634;5.566;2024-03-06T23:10:40;18.50;60.30
58153;DHT22;43967;51.634;5.566;2024-03-06T23:16:02;18.50;60.20
58153;DHT22;43967;51.634;5.566;2024-03-06T23:21:23;18.50;60.10
58153;DHT22;43967;51.634;5.566;2024-03-06T23:26:44;18.40;60.00
58153;DHT22;43967;51.634;5.566;2024-03-06T23:32:05;18.40;59.90
58153;DHT22;43967;51.634;5.566;2024-03-06T23:37:27;18.40;59.90
58153;DHT22;43967;51.634;5.566;2024-03-06T23:42:48;18.40;59.80
58153;DHT22;43967;51.634;5.566;2024-03-06T23:48:09;18.40;59.70
58153;DHT22;43967;51.634;5.566;2024-03-06T23:53:31;18.40;59.60
58153;DHT22;43967;51.634;5.566;2024-03-06T23:58:52;18.40;59.60
